^^
Saratoga-Weather Station Historical Data
 
Daily Summary for January 23, 2020 Units:  English    Metric   Both
Daily Weekly Monthly Yearly Custom
  Current: High: Low: Average:
Temperature: 38 °F 42.6 °F 38 °F 40.6 °F
Dew Point: 35.1 °F 35.1 °F 19.4 °F 24.2 °F
Humidity: 89% 89% 39% 53%
Wind Speed: 7mph 10mph 1mph 6.1mph
Wind Gust: 11mph 19mph - -
WindSE - - SE
Pressure: 30.18 in 30.23 in 30.18 in -
Precipitation: 0.09 in      
Historical Graphs
 
 
Tabular Data for January 23, 2020
Time Temperature Dew Point Pressure Wind Wind Speed Wind Gust Humidity Rainfall Rate (Hourly) solar
00:00 42.6 °F 19.4 °F 30.23 in SE 5 mph 9 mph 39% 0 in 0.00 W/m2
00:05 42.6 °F 20 °F 30.23 in SE 4 mph 7 mph 40% 0 in 0.00 W/m2
00:10 42.5 °F 19.9 °F 30.23 in SE 5 mph 8 mph 40% 0 in 0.00 W/m2
00:15 42.4 °F 20.4 °F 30.23 in SE 5 mph 10 mph 41% 0 in 0.00 W/m2
00:20 42.4 °F 19.8 °F 30.22 in SE 8 mph 14 mph 40% 0 in 0.00 W/m2
00:25 42.3 °F 19.7 °F 30.22 in SE 8 mph 15 mph 40% 0 in 0.00 W/m2
00:30 42.2 °F 20.2 °F 30.21 in SE 8 mph 13 mph 41% 0 in 0.00 W/m2
00:35 42.1 °F 20.1 °F 30.21 in SE 7 mph 12 mph 41% 0 in 0.00 W/m2
00:40 42 °F 20 °F 30.21 in SE 8 mph 16 mph 41% 0 in 0.00 W/m2
00:45 41.9 °F 19.9 °F 30.21 in SE 7 mph 12 mph 41% 0 in 0.00 W/m2
00:50 41.8 °F 19.8 °F 30.22 in SE 7 mph 13 mph 41% 0 in 0.00 W/m2
00:55 41.8 °F 19.8 °F 30.22 in SE 6 mph 10 mph 41% 0 in 0.00 W/m2
01:00 41.7 °F 19.8 °F 30.22 in SE 6 mph 12 mph 41% 0 in 0.00 W/m2
01:05 41.7 °F 19.8 °F 30.22 in ESE 3 mph 7 mph 41% 0 in 0.00 W/m2
01:10 41.6 °F 19.7 °F 30.23 in SE 3 mph 7 mph 41% 0 in 0.00 W/m2
01:15 41.6 °F 20.2 °F 30.23 in East 2 mph 4 mph 42% 0 in 0.00 W/m2
01:20 41.5 °F 20.1 °F 30.23 in East 1 mph 4 mph 42% 0 in 0.00 W/m2
01:25 41.5 °F 20.1 °F 30.23 in ESE 3 mph 6 mph 42% 0 in 0.00 W/m2
01:30 41.4 °F 20 °F 30.22 in East 3 mph 8 mph 42% 0 in 0.00 W/m2
01:35 41.4 °F 20 °F 30.22 in ESE 2 mph 6 mph 42% 0 in 0.00 W/m2
01:40 41.3 °F 20 °F 30.22 in SE 3 mph 8 mph 42% 0 in 0.00 W/m2
01:45 41.2 °F 19.9 °F 30.22 in SE 3 mph 8 mph 42% 0 in 0.00 W/m2
01:50 41.2 °F 20.4 °F 30.21 in ESE 3 mph 7 mph 43% 0 in 0.00 W/m2
01:55 41.1 °F 20.3 °F 30.21 in SE 5 mph 11 mph 43% 0 in 0.00 W/m2
02:00 41.1 °F 20.3 °F 30.22 in SE 4 mph 9 mph 43% 0 in 0.00 W/m2
02:05 41 °F 20.2 °F 30.22 in SE 6 mph 9 mph 43% 0 in 0.00 W/m2
02:10 41 °F 20.2 °F 30.22 in SE 5 mph 11 mph 43% 0 in 0.00 W/m2
02:15 41.1 °F 20.3 °F 30.22 in SE 7 mph 11 mph 43% 0 in 0.00 W/m2
02:20 41.1 °F 20.3 °F 30.22 in SE 7 mph 12 mph 43% 0 in 0.00 W/m2
02:25 41.1 °F 20.3 °F 30.22 in SE 7 mph 11 mph 43% 0 in 0.00 W/m2
02:30 41.1 °F 20.3 °F 30.22 in SE 6 mph 12 mph 43% 0 in 0.00 W/m2
02:35 41.2 °F 20.4 °F 30.21 in SE 6 mph 12 mph 43% 0 in 0.00 W/m2
02:40 41.2 °F 20.4 °F 30.21 in SE 6 mph 10 mph 43% 0 in 0.00 W/m2
02:45 41.2 °F 20.4 °F 30.21 in SE 8 mph 15 mph 43% 0 in 0.00 W/m2
02:50 41.3 °F 21.1 °F 30.21 in SE 8 mph 15 mph 44% 0 in 0.00 W/m2
02:55 41.3 °F 21.1 °F 30.21 in SE 7 mph 11 mph 44% 0 in 0.00 W/m2
03:00 41.3 °F 21.1 °F 30.21 in SE 5 mph 11 mph 44% 0 in 0.00 W/m2
03:05 41.3 °F 21.1 °F 30.21 in SE 6 mph 13 mph 44% 0 in 0.00 W/m2
03:10 41.3 °F 21.1 °F 30.22 in SE 6 mph 12 mph 44% 0 in 0.00 W/m2
03:15 41.3 °F 21.1 °F 30.22 in SE 8 mph 13 mph 44% 0 in 0.00 W/m2
03:20 41.3 °F 21.1 °F 30.21 in SE 5 mph 12 mph 44% 0 in 0.00 W/m2
03:25 41.3 °F 21.1 °F 30.22 in SE 5 mph 9 mph 44% 0 in 0.00 W/m2
03:30 41.3 °F 21.1 °F 30.22 in SE 6 mph 10 mph 44% 0 in 0.00 W/m2
03:35 41.3 °F 21.6 °F 30.22 in ESE 4 mph 9 mph 45% 0 in 0.00 W/m2
03:40 41.3 °F 21.1 °F 30.21 in SE 4 mph 8 mph 44% 0 in 0.00 W/m2
03:45 41.3 °F 21.6 °F 30.21 in SE 4 mph 12 mph 45% 0 in 0.00 W/m2
03:50 41.3 °F 21.6 °F 30.21 in ESE 4 mph 11 mph 45% 0 in 0.00 W/m2
03:55 41.3 °F 21.6 °F 30.21 in SE 3 mph 11 mph 45% 0 in 0.00 W/m2
04:00 41.3 °F 21.6 °F 30.21 in SE 4 mph 11 mph 45% 0 in 0.00 W/m2
04:05 41.3 °F 21.6 °F 30.20 in SE 6 mph 12 mph 45% 0 in 0.00 W/m2
04:10 41.3 °F 21.6 °F 30.21 in ESE 4 mph 8 mph 45% 0 in 0.00 W/m2
04:15 41.3 °F 21.6 °F 30.20 in East 4 mph 9 mph 45% 0 in 0.00 W/m2
04:20 41.3 °F 21.6 °F 30.21 in ESE 3 mph 10 mph 45% 0 in 0.00 W/m2
04:25 41.3 °F 21.6 °F 30.20 in ESE 5 mph 11 mph 45% 0 in 0.00 W/m2
04:30 41.3 °F 21.6 °F 30.20 in SE 4 mph 12 mph 45% 0 in 0.00 W/m2
04:35 41.3 °F 22.1 °F 30.20 in ESE 4 mph 9 mph 46% 0 in 0.00 W/m2
04:40 41.2 °F 22 °F 30.21 in SE 5 mph 12 mph 46% 0 in 0.00 W/m2
04:45 41.2 °F 21.5 °F 30.21 in SE 6 mph 13 mph 45% 0 in 0.00 W/m2
04:50 41.2 °F 21.5 °F 30.21 in SE 7 mph 15 mph 45% 0 in 0.00 W/m2
04:55 41.2 °F 21.5 °F 30.21 in SE 7 mph 15 mph 45% 0 in 0.00 W/m2
05:00 41.2 °F 22 °F 30.21 in SE 8 mph 16 mph 46% 0 in 0.00 W/m2
05:05 41.1 °F 21.9 °F 30.21 in SE 8 mph 12 mph 46% 0 in 0.00 W/m2
05:10 41.1 °F 21.9 °F 30.20 in SE 9 mph 15 mph 46% 0 in 0.00 W/m2
05:15 41.1 °F 21.9 °F 30.20 in SE 8 mph 11 mph 46% 0 in 0.00 W/m2
05:20 41.1 °F 21.9 °F 30.20 in SE 9 mph 19 mph 46% 0 in 0.00 W/m2
05:25 41.1 °F 21.9 °F 30.20 in SE 8 mph 16 mph 46% 0 in 0.00 W/m2
05:30 41.1 °F 21.9 °F 30.21 in SE 9 mph 16 mph 46% 0 in 0.00 W/m2
05:35 41.1 °F 21.9 °F 30.21 in SE 9 mph 17 mph 46% 0 in 0.00 W/m2
05:40 41.1 °F 21.9 °F 30.21 in SE 7 mph 13 mph 46% 0 in 0.00 W/m2
05:45 41.1 °F 22.4 °F 30.21 in SE 7 mph 11 mph 47% 0 in 0.00 W/m2
05:50 41.1 °F 22.4 °F 30.21 in SE 8 mph 17 mph 47% 0 in 0.00 W/m2
05:55 41.1 °F 22.4 °F 30.20 in SE 8 mph 12 mph 47% 0 in 0.00 W/m2
06:00 41.1 °F 22.4 °F 30.20 in SE 8 mph 15 mph 47% 0 in 0.00 W/m2
06:05 41.1 °F 22.9 °F 30.20 in SE 7 mph 15 mph 48% 0 in 0.00 W/m2
06:10 41.1 °F 22.9 °F 30.20 in SE 8 mph 12 mph 48% 0 in 0.00 W/m2
06:15 41.1 °F 22.9 °F 30.20 in SE 8 mph 14 mph 48% 0 in 0.00 W/m2
06:20 41 °F 22.8 °F 30.20 in SE 7 mph 14 mph 48% 0 in 0.00 W/m2
06:25 41 °F 22.8 °F 30.20 in SE 8 mph 15 mph 48% 0 in 0.00 W/m2
06:30 41 °F 23.3 °F 30.20 in SE 7 mph 16 mph 49% 0 in 0.00 W/m2
06:35 40.9 °F 23.2 °F 30.20 in SE 6 mph 15 mph 49% 0 in 0.00 W/m2
06:40 40.9 °F 23.7 °F 30.20 in SE 6 mph 16 mph 50% 0 in 0.00 W/m2
06:45 40.8 °F 24.6 °F 30.20 in SE 8 mph 16 mph 52% 0 in 0.00 W/m2
06:50 40.7 °F 25.8 °F 30.20 in SE 7 mph 15 mph 55% 0 in 0.00 W/m2
06:55 40.5 °F 26.5 °F 30.20 in SE 5 mph 10 mph 57% 0 in 0.00 W/m2
07:00 40.3 °F 26.7 °F 30.20 in SE 3 mph 8 mph 58% 0 in 0.00 W/m2
07:05 40.1 °F 26.9 °F 30.21 in SE 7 mph 12 mph 59% 0 in 0.00 W/m2
07:10 39.8 °F 27.1 °F 30.21 in SE 7 mph 12 mph 60% 0 in 0.00 W/m2
07:15 39.5 °F 26.8 °F 30.20 in SE 7 mph 13 mph 60% 0 in 1.00 W/m2
07:20 39.3 °F 26.6 °F 30.20 in SE 6 mph 13 mph 60% 0 in 5.00 W/m2
07:25 39.2 °F 26.5 °F 30.20 in SE 7 mph 10 mph 60% 0 in 8.00 W/m2
07:30 39.1 °F 26.8 °F 30.20 in SE 7 mph 14 mph 61% 0 in 18.00 W/m2
07:35 39.1 °F 26.8 °F 30.20 in SE 7 mph 14 mph 61% 0 in 30.00 W/m2
07:40 39 °F 27.1 °F 30.19 in ESE 6 mph 13 mph 62% 0 in 43.00 W/m2
07:45 39 °F 27.1 °F 30.19 in SE 8 mph 15 mph 62% 0 in 54.00 W/m2
07:50 39 °F 27.1 °F 30.19 in SE 8 mph 16 mph 62% 0 in 52.00 W/m2
07:55 39.1 °F 27.2 °F 30.19 in SE 9 mph 16 mph 62% 0 in 51.00 W/m2
08:00 39.2 °F 26.9 °F 30.19 in ESE 7 mph 13 mph 61% 0 in 49.00 W/m2
08:05 39.2 °F 26.9 °F 30.19 in SE 6 mph 13 mph 61% 0 in 48.00 W/m2
08:10 39.3 °F 26.6 °F 30.19 in SE 7 mph 15 mph 60% 0 in 59.00 W/m2
08:15 39.5 °F 26.8 °F 30.19 in SE 8 mph 15 mph 60% 0 in 71.00 W/m2
08:20 39.8 °F 26.7 °F 30.19 in SE 10 mph 16 mph 59% 0 in 76.00 W/m2
08:25 40 °F 26.8 °F 30.19 in SE 9 mph 16 mph 59% 0 in 67.00 W/m2
08:30 40.1 °F 26.5 °F 30.20 in SE 8 mph 16 mph 58% 0 in 61.00 W/m2
08:35 40.3 °F 27.1 °F 30.20 in SE 8 mph 15 mph 59% 0 in 50.00 W/m2
08:40 40.4 °F 27.6 °F 30.20 in SE 8 mph 16 mph 60% 0 in 49.00 W/m2
08:45 40.4 °F 28 °F 30.20 in SE 7 mph 13 mph 61% 0 in 50.00 W/m2
08:50 40.3 °F 28.3 °F 30.20 in SE 7 mph 13 mph 62% 0 in 47.00 W/m2
08:55 40.2 °F 29 °F 30.20 in SE 8 mph 15 mph 64% 0 in 46.00 W/m2
09:00 40 °F 29.6 °F 30.20 in SE 7 mph 11 mph 66% 0 in 52.00 W/m2
09:05 39.9 °F 30.2 °F 30.20 in SE 6 mph 14 mph 68% 0 in 75.00 W/m2
09:10 39.8 °F 30.8 °F 30.20 in SE 7 mph 14 mph 70% 0 in 81.00 W/m2
09:15 39.6 °F 31.3 °F 30.20 in SE 8 mph 15 mph 72% 0.01 in 92.00 W/m2
09:20 39.5 °F 32.2 °F 30.20 in SE 7 mph 15 mph 75% 0.01 in 83.00 W/m2
09:25 39.3 °F 32.7 °F 30.20 in SE 6 mph 15 mph 77% 0.02 in 72.00 W/m2
09:30 39.1 °F 33.5 °F 30.20 in SE 4 mph 8 mph 80% 0.03 in 70.00 W/m2
09:35 38.9 °F 33.6 °F 30.20 in SE 2 mph 5 mph 81% 0.04 in 44.00 W/m2
09:40 38.8 °F 33.8 °F 30.20 in East 4 mph 9 mph 82% 0.05 in 60.00 W/m2
09:45 38.6 °F 33.9 °F 30.20 in SE 6 mph 12 mph 83% 0.05 in 83.00 W/m2
09:50 38.4 °F 34 °F 30.20 in SE 7 mph 14 mph 84% 0.06 in 62.00 W/m2
09:55 38.3 °F 34.2 °F 30.20 in East 7 mph 14 mph 85% 0.06 in 62.00 W/m2
10:00 38.2 °F 34.4 °F 30.20 in East 6 mph 11 mph 86% 0.07 in 54.00 W/m2
10:05 38.2 °F 34.7 °F 30.20 in ESE 4 mph 8 mph 87% 0.07 in 68.00 W/m2
10:10 38.1 °F 34.9 °F 30.20 in ESE 5 mph 12 mph 88% 0.08 in 74.00 W/m2
10:15 38.1 °F 34.9 °F 30.19 in ESE 6 mph 12 mph 88% 0.07 in 77.00 W/m2
10:20 38 °F 35.1 °F 30.19 in East 5 mph 11 mph 89% 0.07 in 74.00 W/m2
10:25 38 °F 35.1 °F 30.19 in East 6 mph 12 mph 89% 0.07 in 77.00 W/m2
10:30 38 °F 35.1 °F 30.18 in SE 7 mph 11 mph 89% 0.06 in 70.00 W/m2
Albertville, Alabama, USA
Compliments of Weather Underground - 2 mb